Time;durP1;ratioP1;P1;durP2;ratioP2;P2;SDS_P1;SDS_P2;PMS_P1;PMS_P2;Temp;Humidity;BMP_temperature;BMP_pressure;BME280_temperature;BME280_humidity;BME280_pressure;Samples;Min_cycle;Max_cycle;Signal;HPM_P1;HPM_P2
2021/07/29 00:00:19;;;;;;;0.40;0.00;;;;;;;24.59;66.45;99804.73;126039;1093;114460;-75
2021/07/29 00:02:46;;;;;;;0.40;0.00;;;;;;;24.49;66.81;99813.78;126370;1095;102896;-75
2021/07/29 00:05:14;;;;;;;0.40;0.00;;;;;;;24.44;66.65;99821.52;125981;1093;113994;-75
2021/07/29 00:07:41;;;;;;;0.40;0.00;;;;;;;24.36;67.11;99811.38;126046;1093;102931;-76
2021/07/29 00:10:09;;;;;;;0.40;0.00;;;;;;;24.30;66.79;99821.95;126089;1093;103018;-75
2021/07/29 00:12:37;;;;;;;0.40;0.00;;;;;;;24.34;67.91;99818.81;126600;1092;113891;-76
2021/07/29 00:15:06;;;;;;;0.40;0.00;;;;;;;24.32;67.45;99819.95;126031;1093;103669;-77
2021/07/29 00:20:18;;;;;;;0.40;0.00;;;;;;;24.42;67.13;99819.94;126142;1093;103203;-78
2021/07/29 00:22:49;;;;;;;0.40;0.00;;;;;;;24.42;67.15;99820.81;126052;1093;102969;-75
2021/07/29 00:25:16;;;;;;;0.40;0.00;;;;;;;24.45;66.89;99819.67;125988;1095;114402;-75
2021/07/29 00:27:44;;;;;;;0.40;0.00;;;;;;;24.37;67.09;99818.52;126005;1095;102959;-75
2021/07/29 00:30:13;;;;;;;0.40;0.00;;;;;;;24.30;67.50;99803.77;125996;1094;114019;-75
2021/07/29 00:32:42;;;;;;;0.40;0.00;;;;;;;24.23;67.37;99810.77;126073;1096;103115;-75
2021/07/29 00:35:15;;;;;;;0.40;0.00;;;;;;;24.13;67.34;99801.78;126029;1096;102882;-75
2021/07/29 00:37:49;;;;;;;0.40;0.00;;;;;;;24.18;67.34;99804.94;125910;1093;113986;-78
2021/07/29 00:40:17;;;;;;;0.40;0.00;;;;;;;24.26;67.30;99804.19;126097;1093;102980;-77
2021/07/29 00:42:45;;;;;;;0.40;0.00;;;;;;;24.27;66.94;99806.80;125938;1093;113997;-78
2021/07/29 00:45:12;;;;;;;0.40;0.00;;;;;;;24.30;66.76;99811.06;126058;1093;102967;-78
2021/07/29 00:47:42;;;;;;;0.40;0.00;;;;;;;24.21;66.82;99805.48;125924;1094;114224;-75
2021/07/29 00:50:11;;;;;;;0.40;0.00;;;;;;;24.15;67.30;99808.80;126041;1095;102907;-78
2021/07/29 00:52:39;;;;;;;0.40;0.00;;;;;;;24.14;66.93;99789.90;126017;1093;103394;-78
2021/07/29 00:55:19;;;;;;;0.40;0.00;;;;;;;24.09;67.67;99787.59;125947;1094;114196;-77
2021/07/29 00:57:47;;;;;;;0.40;0.00;;;;;;;24.15;67.72;99797.03;126196;1093;102903;-78
2021/07/29 01:00:14;;;;;;;0.40;0.00;;;;;;;24.14;67.20;99789.90;126022;1092;113934;-76
2021/07/29 01:02:42;;;;;;;0.40;0.00;;;;;;;24.18;67.35;99794.05;125971;1096;102945;-76
2021/07/29 01:05:10;;;;;;;0.40;0.00;;;;;;;24.13;67.04;99789.02;126051;1094;102984;-76
2021/07/29 01:07:37;;;;;;;0.40;0.00;;;;;;;24.09;67.02;99792.19;125911;1093;114250;-75
2021/07/29 01:10:07;;;;;;;0.40;0.00;;;;;;;24.06;66.88;99792.45;126071;1093;102999;-75
2021/07/29 01:12:35;;;;;;;0.40;0.00;;;;;;;24.02;67.19;99798.19;125965;1093;114222;-76
2021/07/29 01:15:04;;;;;;;0.40;0.00;;;;;;;23.93;67.37;99792.75;126025;1093;102986;-76
2021/07/29 01:17:33;;;;;;;0.40;0.00;;;;;;;23.80;67.54;99798.41;125923;1093;113140;-77
2021/07/29 01:20:01;;;;;;;0.40;0.00;;;;;;;23.76;68.04;99792.39;126094;1093;102974;-77
2021/07/29 01:22:34;;;;;;;0.40;0.00;;;;;;;23.74;67.89;99793.52;125991;1093;103065;-78
2021/07/29 01:25:03;;;;;;;0.40;0.00;;;;;;;23.70;68.15;99784.81;126001;1093;114018;-79
2021/07/29 01:27:31;;;;;;;0.40;0.00;;;;;;;23.66;67.77;99788.81;126266;1093;101544;-76
2021/07/29 01:30:01;;;;;;;0.40;0.00;;;;;;;23.63;68.11;99783.63;126007;1095;114253;-76
2021/07/29 01:32:28;;;;;;;0.40;0.00;;;;;;;23.60;68.16;99784.77;126093;1096;103332;-78
2021/07/29 01:34:59;;;;;;;0.40;0.00;;;;;;;23.52;68.24;99780.02;126116;1094;101755;-75
2021/07/29 01:37:26;;;;;;;0.40;0.00;;;;;;;23.50;68.51;99790.20;125888;1093;113936;-76
2021/07/29 01:39:55;;;;;;;0.40;0.00;;;;;;;23.49;68.67;99784.91;126135;1093;103004;-76
2021/07/29 01:42:22;;;;;;;0.40;0.00;;;;;;;23.51;68.57;99777.45;126007;1096;114177;-76
2021/07/29 01:44:49;;;;;;;0.40;0.00;;;;;;;23.51;68.39;99780.17;126078;1095;103132;-76
2021/07/29 01:47:16;;;;;;;0.40;0.00;;;;;;;23.47;68.50;99782.33;126068;1096;102964;-78
2021/07/29 01:49:44;;;;;;;0.40;0.00;;;;;;;23.46;68.37;99783.32;126213;1093;113848;-77
2021/07/29 01:52:11;;;;;;;0.40;0.00;;;;;;;23.45;68.16;99781.59;126005;1094;103038;-76
2021/07/29 01:54:38;;;;;;;0.40;0.00;;;;;;;23.35;68.54;99780.70;126010;1093;114009;-76
2021/07/29 01:57:08;;;;;;;0.40;0.00;;;;;;;23.35;68.74;99784.30;126048;1094;104651;-76
2021/07/29 01:59:36;;;;;;;0.40;0.00;;;;;;;23.43;68.23;99793.59;126176;1093;114156;-76
2021/07/29 02:02:05;;;;;;;0.40;0.00;;;;;;;23.40;67.81;99788.45;126079;1093;103000;-75
2021/07/29 02:04:35;;;;;;;0.40;0.00;;;;;;;23.40;68.26;99786.58;126090;1093;102917;-75
2021/07/29 02:07:04;;;;;;;0.40;0.00;;;;;;;23.41;68.83;99788.31;125954;1093;115941;-76
2021/07/29 02:09:31;;;;;;;0.40;0.00;;;;;;;23.33;68.70;99782.71;126109;1093;103030;-76
2021/07/29 02:11:59;;;;;;;0.40;0.00;;;;;;;23.31;68.65;99779.25;125921;1093;114176;-76
2021/07/29 02:14:28;;;;;;;0.40;0.00;;;;;;;23.32;68.47;99791.85;126085;1093;102917;-76
2021/07/29 02:16:56;;;;;;;0.40;0.00;;;;;;;23.31;68.37;99803.71;126052;1093;102916;-76
2021/07/29 02:19:24;;;;;;;0.40;0.00;;;;;;;23.35;68.17;99802.44;126036;1093;113958;-76
2021/07/29 02:21:51;;;;;;;0.40;0.00;;;;;;;23.32;68.37;99808.16;126076;1093;102843;-76
2021/07/29 02:24:20;;;;;;;0.40;0.00;;;;;;;23.35;68.11;99805.16;126015;1092;113968;-76
2021/07/29 02:26:47;;;;;;;0.40;0.00;;;;;;;23.33;68.06;99812.60;126174;1093;103081;-76
2021/07/29 02:29:14;;;;;;;0.40;0.00;;;;;;;23.31;67.86;99812.74;126145;1093;102894;-76
2021/07/29 02:31:42;;;;;;;0.40;0.00;;;;;;;23.26;68.02;99816.84;125959;1093;113765;-76
2021/07/29 02:34:09;;;;;;;0.40;0.00;;;;;;;23.14;67.95;99827.82;126082;1093;103048;-77
2021/07/29 02:36:36;;;;;;;0.40;0.00;;;;;;;23.13;68.65;99826.09;125969;1093;114573;-76
2021/07/29 02:39:04;;;;;;;0.40;0.00;;;;;;;23.05;68.17;99825.88;126172;1094;103176;-75
2021/07/29 02:41:33;;;;;;;0.40;0.00;;;;;;;22.98;68.77;99827.39;125964;1093;114118;-76
2021/07/29 02:44:00;;;;;;;0.40;0.00;;;;;;;22.95;68.68;99835.82;126087;1092;103151;-75
2021/07/29 02:46:29;;;;;;;0.40;0.00;;;;;;;22.91;68.79;99835.22;126060;1093;103023;-75
2021/07/29 02:48:57;;;;;;;0.40;0.00;;;;;;;22.90;68.59;99833.52;126093;1093;114056;-75
2021/07/29 02:51:25;;;;;;;0.40;0.00;;;;;;;22.90;68.82;99844.39;126112;1095;103150;-75
2021/07/29 02:53:52;;;;;;;0.40;0.00;;;;;;;22.87;68.61;99840.08;126054;1093;114224;-75
2021/07/29 02:56:19;;;;;;;0.40;0.00;;;;;;;22.93;68.58;99840.55;126040;1094;102948;-75
2021/07/29 02:58:47;;;;;;;0.40;0.00;;;;;;;22.85;68.58;99838.49;126162;1095;103093;-75
2021/07/29 03:01:17;;;;;;;0.40;0.00;;;;;;;22.81;68.40;99846.03;125985;1093;114562;-77
2021/07/29 03:03:45;;;;;;;0.40;0.00;;;;;;;22.81;68.46;99843.31;126080;1093;103058;-75
2021/07/29 03:06:12;;;;;;;0.40;0.00;;;;;;;22.79;68.55;99839.02;126009;1093;113948;-75
2021/07/29 03:08:39;;;;;;;0.40;0.00;;;;;;;22.73;67.99;99853.98;126178;1092;102916;-75
2021/07/29 03:11:09;;;;;;;0.40;0.00;;;;;;;22.70;68.11;99849.68;126139;1093;103023;-75
2021/07/29 03:13:37;;;;;;;0.40;0.00;;;;;;;22.68;68.51;99853.52;126047;1092;113956;-75
2021/07/29 03:16:05;;;;;;;0.40;0.00;;;;;;;22.62;68.56;99856.75;126096;1093;102878;-75
2021/07/29 03:18:32;;;;;;;0.40;0.00;;;;;;;22.62;68.42;99859.46;126075;1093;114402;-74
2021/07/29 03:20:59;;;;;;;0.40;0.00;;;;;;;22.62;68.07;99862.17;126131;1093;102948;-74
2021/07/29 03:23:27;;;;;;;0.40;0.00;;;;;;;22.52;67.89;99867.54;126042;1093;113835;-73
2021/07/29 03:25:54;;;;;;;0.40;0.00;;;;;;;22.51;68.97;99863.09;126252;1093;102982;-74
2021/07/29 03:28:22;;;;;;;0.40;0.00;;;;;;;22.48;68.35;99860.66;126176;1092;102896;-74
2021/07/29 03:30:50;;;;;;;0.40;0.00;;;;;;;22.44;68.14;99860.05;126036;1093;113950;-74
2021/07/29 03:33:18;;;;;;;0.40;0.00;;;;;;;22.45;68.25;99869.06;126174;1093;103048;-75
2021/07/29 03:35:45;;;;;;;0.40;0.00;;;;;;;22.43;67.96;99866.48;126028;1093;114175;-74
2021/07/29 03:38:12;;;;;;;0.40;0.00;;;;;;;22.47;67.92;99867.95;126235;1093;103022;-74
2021/07/29 03:40:41;;;;;;;0.40;0.00;;;;;;;22.47;67.94;99870.66;126094;1096;103109;-74
2021/07/29 03:43:09;;;;;;;0.40;0.00;;;;;;;22.47;67.86;99869.78;126187;1094;114121;-74
2021/07/29 03:45:41;;;;;;;0.40;0.00;;;;;;;22.43;67.25;99877.34;126072;1096;103097;-74
2021/07/29 03:48:08;;;;;;;0.40;0.00;;;;;;;22.41;67.38;99873.88;126051;1093;114114;-74
2021/07/29 03:50:38;;;;;;;0.40;0.00;;;;;;;22.31;67.50;99878.32;126160;1093;103032;-74
2021/07/29 03:53:05;;;;;;;0.40;0.00;;;;;;;22.33;67.00;99877.20;126123;1095;103018;-74
2021/07/29 03:55:33;;;;;;;0.40;0.00;;;;;;;22.38;67.88;99893.14;126008;1096;113951;-73
2021/07/29 03:58:00;;;;;;;0.40;0.00;;;;;;;22.35;67.46;99890.67;126134;1095;103341;-75
2021/07/29 04:00:28;;;;;;;0.40;0.00;;;;;;;22.28;67.06;99884.02;126010;1093;113964;-74
2021/07/29 04:02:56;;;;;;;0.40;0.00;;;;;;;22.25;67.29;99887.00;126123;1095;103099;-74
2021/07/29 04:05:23;;;;;;;0.40;0.00;;;;;;;22.15;67.01;99885.05;126030;1094;114147;-74
2021/07/29 04:07:50;;;;;;;0.40;0.00;;;;;;;22.05;67.15;99884.93;126159;1093;102911;-74
2021/07/29 04:10:17;;;;;;;0.40;0.00;;;;;;;22.00;67.13;99889.02;126072;1093;102900;-75
2021/07/29 04:12:44;;;;;;;0.40;0.00;;;;;;;21.95;67.19;99889.41;125969;1096;114033;-74
2021/07/29 04:15:12;;;;;;;0.40;0.00;;;;;;;21.93;66.23;99891.38;126050;1092;105295;-75
2021/07/29 04:17:40;;;;;;;0.40;0.00;;;;;;;21.91;66.37;99900.63;126068;1093;114248;-74
2021/07/29 04:20:08;;;;;;;0.40;0.00;;;;;;;21.90;66.14;99902.48;126296;1093;102902;-77
2021/07/29 04:22:36;;;;;;;0.40;0.00;;;;;;;21.94;66.72;99898.53;126068;1093;102991;-77
2021/07/29 04:25:04;;;;;;;0.40;0.00;;;;;;;22.00;66.79;99897.16;125993;1093;114054;-74
2021/07/29 04:27:31;;;;;;;0.40;0.00;;;;;;;22.04;66.47;99898.63;126104;1093;102932;-74
2021/07/29 04:30:00;;;;;;;0.40;0.00;;;;;;;21.97;66.08;99891.99;125976;1093;114150;-74
2021/07/29 04:32:27;;;;;;;0.40;0.00;;;;;;;21.94;66.53;99892.22;126084;1092;103480;-74
2021/07/29 04:34:54;;;;;;;0.40;0.00;;;;;;;21.99;66.42;99900.84;126101;1093;102920;-74
2021/07/29 04:37:21;;;;;;;0.40;0.00;;;;;;;21.98;66.44;99896.41;125987;1092;114120;-74
2021/07/29 04:39:48;;;;;;;0.40;0.00;;;;;;;21.87;65.64;99902.71;126023;1093;102917;-74
2021/07/29 04:42:15;;;;;;;0.40;0.00;;;;;;;21.83;66.67;99915.68;125906;1095;114107;-74
2021/07/29 04:44:43;;;;;;;0.40;0.00;;;;;;;21.86;66.18;99906.44;126118;1091;102963;-74
2021/07/29 04:47:14;;;;;;;0.40;0.00;;;;;;;21.93;66.67;99901.38;126080;1093;103125;-74
2021/07/29 04:49:42;;;;;;;0.40;0.00;;;;;;;21.87;65.89;99905.42;125947;1093;113804;-74
2021/07/29 04:52:09;;;;;;;0.40;0.00;;;;;;;21.87;65.67;99903.59;126038;1093;102943;-75
2021/07/29 04:54:36;;;;;;;0.40;0.00;;;;;;;21.87;66.24;99898.17;125992;1093;114048;-74
2021/07/29 04:57:04;;;;;;;0.40;0.00;;;;;;;21.84;66.77;99901.11;126118;1093;103135;-74
2021/07/29 04:59:31;;;;;;;0.40;0.00;;;;;;;21.85;65.83;99900.13;126029;1093;114540;-74
2021/07/29 05:01:58;;;;;;;0.40;0.00;;;;;;;21.87;65.68;99891.87;126099;1095;103023;-74
2021/07/29 05:04:25;;;;;;;0.40;0.00;;;;;;;21.91;66.20;99900.63;126168;1092;102962;-74
2021/07/29 05:06:52;;;;;;;0.40;0.00;;;;;;;21.97;65.65;99902.84;126070;1092;114413;-74
2021/07/29 05:09:20;;;;;;;0.40;0.00;;;;;;;21.99;65.35;99903.55;126132;1093;103062;-74
2021/07/29 05:11:48;;;;;;;0.40;0.00;;;;;;;22.02;65.68;99908.75;126029;1093;114639;-74
2021/07/29 05:14:15;;;;;;;0.40;0.00;;;;;;;22.01;64.78;99901.59;126093;1093;102924;-75
2021/07/29 05:16:43;;;;;;;0.40;0.00;;;;;;;22.03;65.23;99899.60;126163;1093;103039;-75
2021/07/29 05:19:11;;;;;;;0.40;0.00;;;;;;;22.10;64.66;99906.27;126019;1092;114697;-77
2021/07/29 05:21:40;;;;;;;0.40;0.00;;;;;;;22.16;65.99;99911.16;126095;1095;102903;-74
2021/07/29 05:24:07;;;;;;;0.40;0.00;;;;;;;22.19;65.29;99908.21;125995;1094;114539;-77
2021/07/29 05:26:35;;;;;;;0.40;0.00;;;;;;;22.21;64.54;99910.80;126101;1093;103073;-77
2021/07/29 05:29:02;;;;;;;0.40;0.00;;;;;;;22.25;64.40;99914.12;126119;1093;103052;-74
2021/07/29 05:31:29;;;;;;;0.40;0.00;;;;;;;22.33;63.98;99906.20;125990;1093;112893;-74
2021/07/29 05:33:57;;;;;;;0.40;0.00;;;;;;;;;;126103;1094;102946;-72
2021/07/29 05:36:24;;;;;;;0.40;0.00;;;;;;;;;;126048;1092;102887;-78
2021/07/29 05:38:52;;;;;;;0.40;0.00;;;;;;;22.34;64.75;99907.92;126069;1093;102890;-77
2021/07/29 05:41:19;;;;;;;0.40;0.00;;;;;;;22.26;63.52;99913.11;126104;1093;102978;-77
2021/07/29 05:43:47;;;;;;;0.40;0.00;;;;;;;22.26;64.63;99910.39;125990;1096;114174;-77
2021/07/29 05:46:14;;;;;;;0.40;0.00;;;;;;;22.30;63.19;99920.00;126166;1093;102994;-77
2021/07/29 05:48:42;;;;;;;0.40;0.00;;;;;;;22.27;63.39;99920.27;125993;1094;114789;-77
2021/07/29 05:51:09;;;;;;;0.40;0.00;;;;;;;22.33;64.03;99911.63;126072;1091;102984;-77
2021/07/29 05:53:37;;;;;;;0.40;0.00;;;;;;;22.37;63.48;99910.41;126024;1093;114156;-77
2021/07/29 05:56:05;;;;;;;0.40;0.00;;;;;;;22.39;63.05;99916.55;126047;1096;102915;-77
2021/07/29 05:58:32;;;;;;;0.40;0.00;;;;;;;22.37;63.17;99913.97;126100;1093;102887;-74
2021/07/29 06:01:07;;;;;;;0.40;0.00;;;;;;;22.38;63.32;99925.70;125973;1092;113944;-74
2021/07/29 06:03:35;;;;;;;0.40;0.00;;;;;;;22.44;63.17;99924.32;126084;1092;102991;-77
2021/07/29 06:06:02;;;;;;;0.40;0.00;;;;;;;22.48;62.77;99915.78;126017;1093;113613;-77
2021/07/29 06:08:30;;;;;;;0.40;0.00;;;;;;;22.57;62.36;99929.59;126109;1093;103022;-77
2021/07/29 06:10:57;;;;;;;0.40;0.00;;;;;;;22.64;62.98;99928.91;126059;1092;104288;-77
2021/07/29 06:13:24;;;;;;;0.40;0.00;;;;;;;22.65;61.99;99924.36;126061;1093;113978;-74
2021/07/29 06:15:51;;;;;;;0.40;0.00;;;;;;;22.64;62.23;99922.63;126095;1093;102887;-74
2021/07/29 06:18:19;;;;;;;0.40;0.00;;;;;;;22.68;61.89;99914.09;126023;1093;114216;-74
2021/07/29 06:20:46;;;;;;;0.40;0.03;;;;;;;22.73;62.13;99927.28;126093;1096;103026;-75
2021/07/29 06:23:13;;;;;;;0.40;0.00;;;;;;;22.73;61.53;99923.72;126114;1093;102893;-75
2021/07/29 06:25:41;;;;;;;0.40;0.00;;;;;;;22.74;62.40;99945.30;126002;1093;114000;-75
2021/07/29 06:28:12;;;;;;;0.40;0.00;;;;;;;22.77;61.51;99930.61;126135;1092;102900;-74
2021/07/29 06:30:42;;;;;;;0.40;0.00;;;;;;;22.88;62.47;99933.25;126002;1095;113992;-76
2021/07/29 06:33:09;;;;;;;0.40;0.00;;;;;;;23.01;61.69;99946.65;126144;1093;102975;-74
2021/07/29 06:35:37;;;;;;;0.40;0.00;;;;;;;23.04;61.37;99939.11;126015;1093;114118;-74
2021/07/29 06:38:05;;;;;;;0.40;0.00;;;;;;;23.10;61.49;99943.14;126150;1093;103055;-74
2021/07/29 06:40:32;;;;;;;0.40;0.00;;;;;;;23.20;61.36;99941.39;126135;1093;103007;-77
2021/07/29 06:43:00;;;;;;;0.40;0.00;;;;;;;23.28;60.54;99950.72;126044;1096;114772;-77
2021/07/29 06:45:27;;;;;;;0.40;0.10;;;;;;;23.30;61.12;99949.59;126147;1096;102987;-74
2021/07/29 06:47:54;;;;;;;0.40;0.00;;;;;;;23.32;61.13;99949.45;126053;1095;114525;-75
2021/07/29 06:50:21;;;;;;;0.40;0.00;;;;;;;23.38;60.62;99951.64;126089;1095;102967;-74
2021/07/29 06:52:48;;;;;;;0.40;0.00;;;;;;;23.39;60.91;99953.34;126156;1094;103138;-75
2021/07/29 06:55:16;;;;;;;0.40;0.00;;;;;;;23.37;60.29;99949.91;126018;1093;112868;-75
2021/07/29 06:57:44;;;;;;;0.40;0.00;;;;;;;23.38;59.87;99951.64;126163;1093;102959;-75
2021/07/29 07:00:12;;;;;;;0.40;0.00;;;;;;;23.43;60.02;99949.39;125957;1093;114517;-74
2021/07/29 07:02:39;;;;;;;0.40;0.00;;;;;;;23.49;59.85;99942.55;126156;1093;102982;-74
2021/07/29 07:05:08;;;;;;;0.40;0.00;;;;;;;23.60;60.69;99947.03;126148;1093;103021;-75
2021/07/29 07:07:35;;;;;;;0.40;0.00;;;;;;;23.77;60.12;99940.95;125998;1095;114444;-75
2021/07/29 07:10:03;;;;;;;0.40;0.00;;;;;;;23.84;59.33;99949.41;126026;1093;103025;-77
2021/07/29 07:12:31;;;;;;;0.40;0.00;;;;;;;23.81;58.98;99945.11;125946;1093;113991;-75
2021/07/29 07:14:59;;;;;;;0.40;0.00;;;;;;;23.86;59.30;99950.16;126057;1092;102975;-75
2021/07/29 07:17:26;;;;;;;0.40;0.00;;;;;;;23.93;59.16;99950.50;126057;1095;114236;-74
2021/07/29 07:19:58;;;;;;;0.40;0.00;;;;;;;23.93;57.84;99947.77;126004;1093;102942;-75
2021/07/29 07:22:26;;;;;;;0.40;0.00;;;;;;;23.94;58.12;99952.19;126096;1093;103070;-74
2021/07/29 07:24:55;;;;;;;0.40;0.00;;;;;;;23.98;58.48;99949.08;126495;1095;114558;-75
2021/07/29 07:27:22;;;;;;;0.40;0.00;;;;;;;24.13;58.14;99943.25;126157;1096;103057;-75
2021/07/29 07:29:50;;;;;;;0.40;0.00;;;;;;;24.22;57.15;99956.02;125958;1093;114515;-74
2021/07/29 07:32:17;;;;;;;0.40;0.00;;;;;;;24.23;57.13;99945.98;126117;1093;103026;-75
2021/07/29 07:34:44;;;;;;;0.40;0.00;;;;;;;24.25;56.99;99938.55;126115;1092;103023;-74
2021/07/29 07:37:12;;;;;;;0.40;0.00;;;;;;;24.25;56.31;99946.72;125952;1094;113981;-74
2021/07/29 07:39:39;;;;;;;0.40;0.00;;;;;;;24.24;56.25;99944.98;126078;1093;103001;-74
2021/07/29 07:42:08;;;;;;;0.40;0.00;;;;;;;24.34;56.92;99938.56;125971;1096;114529;-75
2021/07/29 07:44:35;;;;;;;0.40;0.00;;;;;;;24.45;57.10;99931.28;126087;1093;103010;-77
2021/07/29 07:47:02;;;;;;;0.40;0.00;;;;;;;24.52;56.44;99930.57;126062;1092;102903;-76
2021/07/29 07:49:30;;;;;;;0.40;0.00;;;;;;;24.57;56.01;99926.56;125928;1093;114152;-75
2021/07/29 07:51:57;;;;;;;0.40;0.00;;;;;;;24.58;55.87;99939.14;126084;1096;103079;-75
2021/07/29 07:54:25;;;;;;;0.40;0.00;;;;;;;24.63;56.31;99929.60;126018;1096;113953;-75
2021/07/29 07:56:52;;;;;;;0.40;0.00;;;;;;;24.68;56.35;99934.60;126124;1096;102918;-75
2021/07/29 07:59:19;;;;;;;0.40;0.00;;;;;;;24.74;55.14;99933.16;126067;1096;102972;-75
2021/07/29 08:01:46;;;;;;;0.40;0.00;;;;;;;24.78;55.56;99934.59;126003;1096;113746;-76
2021/07/29 08:04:14;;;;;;;0.40;0.00;;;;;;;24.81;54.46;99937.90;126082;1095;102878;-76
2021/07/29 08:06:41;;;;;;;0.40;0.00;;;;;;;24.83;54.89;99933.18;125987;1093;113974;-76
2021/07/29 08:09:08;;;;;;;0.40;0.00;;;;;;;24.89;54.81;99934.45;126040;1093;102932;-74
2021/07/29 08:11:36;;;;;;;0.40;0.00;;;;;;;24.95;54.81;99928.44;125981;1093;114096;-75
2021/07/29 08:14:03;;;;;;;0.40;0.00;;;;;;;25.01;54.55;99936.02;126063;1095;102959;-75
2021/07/29 08:16:32;;;;;;;0.40;0.00;;;;;;;25.01;54.20;99936.02;126096;1093;102919;-75
2021/07/29 08:18:59;;;;;;;0.40;0.00;;;;;;;25.08;53.25;99930.84;125942;1092;114662;-75
2021/07/29 08:21:26;;;;;;;0.40;0.00;;;;;;;25.16;53.29;99938.29;126088;1093;103094;-75
2021/07/29 08:23:54;;;;;;;0.40;0.00;;;;;;;25.15;52.01;99934.72;126012;1093;114108;-74
2021/07/29 08:26:21;;;;;;;0.40;0.00;;;;;;;25.18;52.82;99941.74;126068;1095;102988;-74
2021/07/29 08:28:51;;;;;;;0.40;0.00;;;;;;;25.24;53.33;99943.02;126057;1092;102908;-75
2021/07/29 08:31:20;;;;;;;0.40;0.00;;;;;;;25.30;51.49;99940.56;126001;1092;113935;-75
2021/07/29 08:33:47;;;;;;;0.40;0.00;;;;;;;25.35;51.80;99937.41;126719;1095;102889;-76
2021/07/29 08:36:17;;;;;;;0.40;0.00;;;;;;;25.45;50.64;99935.52;126003;1093;114014;-75
2021/07/29 08:38:46;;;;;;;0.40;0.00;;;;;;;25.53;51.83;99934.79;126113;1093;102910;-77
2021/07/29 08:41:17;;;;;;;0.40;0.00;;;;;;;25.58;51.81;99931.59;126160;1093;103026;-76
2021/07/29 08:43:46;;;;;;;0.40;0.00;;;;;;;25.72;51.50;99938.45;126005;1093;114020;-76
2021/07/29 08:46:20;;;;;;;0.40;0.00;;;;;;;25.79;50.50;99940.44;126234;1096;102959;-74
2021/07/29 08:48:50;;;;;;;0.40;0.00;;;;;;;25.89;49.54;99939.53;125939;1093;113992;-75
2021/07/29 08:51:23;;;;;;;0.40;0.00;;;;;;;25.95;49.40;99938.91;126095;1093;102903;-75
2021/07/29 08:53:52;;;;;;;0.40;0.00;;;;;;;26.09;49.55;99934.86;126019;1093;113503;-77
2021/07/29 08:56:28;;;;;;;0.40;0.00;;;;;;;26.25;48.52;99936.92;126165;1093;102920;-77
2021/07/29 08:58:56;;;;;;;0.40;0.00;;;;;;;26.33;48.37;99939.73;126098;1094;102892;-76
2021/07/29 09:02:00;;;;;;;0.40;0.00;;;;;;;26.43;48.03;99929.61;126009;1093;114344;-75
2021/07/29 09:04:28;;;;;;;0.40;0.00;;;;;;;26.58;47.48;99921.73;126084;1092;102909;-76
2021/07/29 09:07:02;;;;;;;0.40;0.00;;;;;;;26.70;47.83;99922.35;125979;1093;114004;-75
2021/07/29 09:09:45;;;;;;;0.40;0.00;;;;;;;26.74;46.30;99925.64;126078;1093;103057;-75
2021/07/29 09:12:17;;;;;;;0.40;0.00;;;;;;;26.80;45.88;99934.06;125959;1093;112973;-76
2021/07/29 09:14:48;;;;;;;0.40;0.00;;;;;;;26.92;46.36;99922.90;126096;1093;102898;-76
2021/07/29 09:17:17;;;;;;;0.40;0.00;;;;;;;27.06;45.71;99933.27;126095;1093;103370;-76
2021/07/29 09:19:53;;;;;;;0.40;0.00;;;;;;;27.17;46.02;99926.68;125993;1094;114431;-76
2021/07/29 09:22:25;;;;;;;0.40;0.00;;;;;;;27.41;46.04;99928.75;126036;1096;103026;-76
2021/07/29 09:24:59;;;;;;;0.40;0.00;;;;;;;27.83;46.10;99927.95;126074;1092;113939;-74
2021/07/29 09:27:51;;;;;;;0.40;0.00;;;;;;;28.80;45.43;99926.69;126119;1093;103384;-76
2021/07/29 09:30:21;;;;;;;0.40;0.00;;;;;;;29.37;41.58;99934.05;125957;1094;114297;-77
2021/07/29 09:33:05;;;;;;;0.40;0.00;;;;;;;30.32;40.24;99916.72;126094;1092;102878;-77
2021/07/29 09:35:39;;;;;;;0.40;0.00;;;;;;;31.56;37.64;99921.19;126047;1092;114458;-77
2021/07/29 09:38:10;;;;;;;0.40;0.00;;;;;;;32.46;36.37;99924.72;126131;1093;102907;-77
2021/07/29 09:41:02;;;;;;;0.40;0.00;;;;;;;33.48;35.18;99932.87;126111;1092;103050;-75
2021/07/29 09:43:33;;;;;;;0.40;0.00;;;;;;;34.54;31.94;99933.63;125944;1093;114001;-76
2021/07/29 09:46:03;;;;;;;0.40;0.00;;;;;;;34.99;30.98;99925.63;126156;1093;103559;-76
2021/07/29 09:48:30;;;;;;;0.40;0.00;;;;;;;35.33;29.31;99934.78;125984;1092;114523;-75
2021/07/29 09:50:59;;;;;;;0.40;0.00;;;;;;;35.63;29.26;99934.31;126075;1095;102903;-75
2021/07/29 09:53:33;;;;;;;0.40;0.00;;;;;;;36.06;28.51;99930.99;126102;1093;102890;-73
2021/07/29 09:56:08;;;;;;;0.40;0.00;;;;;;;36.65;28.57;99919.81;126018;1093;113841;-73
2021/07/29 09:58:55;;;;;;;0.40;0.00;;;;;;;37.12;26.88;99919.47;126080;1092;103402;-73
2021/07/29 10:01:23;;;;;;;0.40;0.00;;;;;;;37.45;27.40;99924.73;125940;1092;113970;-73
2021/07/29 10:03:51;;;;;;;0.40;0.00;;;;;;;38.02;26.41;99918.13;126080;1092;103032;-73
2021/07/29 10:06:21;;;;;;;0.40;0.00;;;;;;;38.28;25.65;99916.97;126086;1094;114122;-73
2021/07/29 10:08:57;;;;;;;0.40;0.00;;;;;;;38.29;25.14;99921.42;126045;1092;103074;-73
2021/07/29 10:11:29;;;;;;;0.40;0.00;;;;;;;38.58;25.15;99920.82;126086;1093;103481;-73
2021/07/29 10:13:57;;;;;;;0.40;0.00;;;;;;;37.87;25.39;99920.45;125958;1093;113168;-73
2021/07/29 10:16:43;;;;;;;0.40;0.00;;;;;;;38.06;25.92;99921.30;126112;1095;102972;-73
2021/07/29 10:19:10;;;;;;;0.40;0.00;;;;;;;38.49;25.32;99917.52;125966;1093;114154;-73
2021/07/29 10:21:38;;;;;;;0.40;0.00;;;;;;;38.82;24.38;99916.19;126022;1093;102923;-73
2021/07/29 10:24:07;;;;;;;0.40;0.00;;;;;;;39.54;24.54;99912.36;125960;1093;114167;-73
2021/07/29 10:26:59;;;;;;;0.40;0.00;;;;;;;39.24;23.46;99906.92;126118;1093;102671;-73
2021/07/29 10:29:29;;;;;;;0.40;0.00;;;;;;;39.55;24.10;99911.28;126118;1093;103138;-72
2021/07/29 10:32:08;;;;;;;0.40;0.00;;;;;;;39.69;23.85;99908.26;126021;1093;113773;-73
2021/07/29 10:34:36;;;;;;;0.40;0.00;;;;;;;39.81;22.84;99914.64;126074;1093;102985;-72
2021/07/29 10:37:08;;;;;;;0.40;0.00;;;;;;;39.71;22.80;99914.41;125984;1095;113073;-73
2021/07/29 10:39:58;;;;;;;0.40;0.00;;;;;;;39.76;23.18;99906.17;126120;1092;104256;-74
2021/07/29 10:42:28;;;;;;;0.40;0.00;;;;;;;39.47;22.83;99900.51;125946;1092;114123;-74
2021/07/29 10:44:57;;;;;;;0.40;0.00;;;;;;;39.30;23.78;99911.53;126040;1093;102914;-74
2021/07/29 10:47:37;;;;;;;0.40;0.00;;;;;;;38.43;24.76;99915.67;126111;1091;102881;-75
2021/07/29 10:50:09;;;;;;;0.40;0.00;;;;;;;38.45;25.50;99900.44;126003;1095;114067;-74
2021/07/29 10:52:37;;;;;;;0.40;0.00;;;;;;;38.90;23.82;99912.21;126076;1096;102975;-74
2021/07/29 10:55:08;;;;;;;0.40;0.00;;;;;;;39.47;24.25;99908.88;125995;1096;114008;-74
2021/07/29 10:57:36;;;;;;;0.40;0.00;;;;;;;40.00;23.73;99914.47;126118;1096;103164;-74
2021/07/29 11:00:04;;;;;;;0.40;0.00;;;;;;;39.42;23.86;99904.02;125978;1095;113594;-74
2021/07/29 11:02:39;;;;;;;0.40;0.00;;;;;;;39.21;24.07;99904.63;126072;1096;102944;-74
2021/07/29 11:05:09;;;;;;;0.40;0.00;;;;;;;37.95;24.42;99907.09;126106;1095;103116;-74
2021/07/29 11:07:40;;;;;;;0.40;0.00;;;;;;;36.87;26.27;99900.91;126097;1095;114244;-74
2021/07/29 11:10:18;;;;;;;0.40;0.00;;;;;;;35.98;26.88;99901.59;126113;1095;103059;-74
2021/07/29 11:12:47;;;;;;;0.40;0.00;;;;;;;35.25;29.99;99902.59;126097;1093;113940;-74
2021/07/29 11:15:15;;;;;;;0.40;0.00;;;;;;;34.49;29.44;99918.48;126101;1096;103078;-73
2021/07/29 11:17:42;;;;;;;0.40;0.00;;;;;;;33.92;30.74;99906.79;125955;1093;114225;-73
2021/07/29 11:20:10;;;;;;;0.40;0.00;;;;;;;33.25;31.84;99911.91;126046;1093;102875;-74
2021/07/29 11:22:44;;;;;;;0.40;0.00;;;;;;;32.77;32.06;99906.18;126047;1093;103059;-73
2021/07/29 11:25:12;;;;;;;0.40;0.00;;;;;;;32.30;32.75;99903.77;125971;1093;114795;-72
2021/07/29 11:27:39;;;;;;;0.40;0.00;;;;;;;32.12;32.43;99889.53;126058;1093;103020;-75
2021/07/29 11:30:07;;;;;;;0.40;0.00;;;;;;;31.96;33.02;99899.75;125986;1095;113059;-73